createdAt,value
2022-09-14T00:01:43.782Z,99999.38
2022-09-14T00:04:18.140Z,99993.09
2022-09-14T00:06:47.511Z,99994.81
2022-09-14T00:09:23.115Z,99981.13
2022-09-14T00:11:51.801Z,99994.16
2022-09-14T00:14:20.376Z,99989.69
2022-09-14T00:16:49.116Z,100002.34
2022-09-14T00:19:25.711Z,99999.81
2022-09-14T00:21:57.771Z,100000.53
2022-09-14T00:24:30.607Z,99990.91
2022-09-14T00:26:59.042Z,99985.34
2022-09-14T00:29:27.261Z,99995.56
2022-09-14T00:31:55.517Z,99991.31
2022-09-14T00:34:23.794Z,99990.75
2022-09-14T00:36:52.555Z,99980.19
2022-09-14T00:39:23.961Z,99988.19
2022-09-14T00:41:52.717Z,99995.28
2022-09-14T00:44:24.745Z,99984.41
2022-09-14T00:46:57.462Z,99976.41
2022-09-14T00:49:40.673Z,99972.81
2022-09-14T00:52:28.689Z,99970.31
2022-09-14T00:55:08.000Z,99972.59
2022-09-14T00:57:45.329Z,99973.34
2022-09-14T01:00:20.353Z,99974.03
2022-09-14T01:02:48.360Z,99978.00
2022-09-14T01:05:17.640Z,99965.03
2022-09-14T01:08:31.190Z,99968.25
2022-09-14T01:11:16.631Z,99957.28
2022-09-14T01:14:25.976Z,99955.34
2022-09-14T01:17:44.988Z,99959.28
2022-09-14T01:20:43.005Z,99954.63
2022-09-14T01:23:49.678Z,99951.84
2022-09-14T01:26:59.305Z,99953.72
2022-09-14T01:29:49.776Z,99942.84
2022-09-14T01:32:31.017Z,99946.25
2022-09-14T01:35:15.225Z,99956.28
2022-09-14T01:38:30.208Z,99939.41
2022-09-14T01:41:02.721Z,99931.75
2022-09-14T01:43:56.362Z,99932.47
2022-09-14T01:46:43.101Z,99935.97
2022-09-14T01:49:24.859Z,99931.09
2022-09-14T01:52:02.612Z,99933.44
2022-09-14T01:54:48.372Z,99937.72
2022-09-14T01:57:35.752Z,99939.59
2022-09-14T02:00:13.482Z,99929.97
2022-09-14T02:02:55.623Z,99925.09
2022-09-14T02:06:00.516Z,99927.53
2022-09-14T02:08:30.586Z,99935.31
2022-09-14T02:10:59.304Z,99936.47
2022-09-14T02:13:28.194Z,99936.03
2022-09-14T02:15:56.694Z,99934.41
2022-09-14T02:18:25.134Z,99928.38
2022-09-14T02:21:04.646Z,99920.38
2022-09-14T02:23:35.216Z,99918.31
2022-09-14T02:26:03.640Z,99931.41
2022-09-14T02:28:31.954Z,99928.63
2022-09-14T02:31:34.866Z,99926.53
2022-09-14T02:34:30.609Z,99926.53
2022-09-14T02:37:12.150Z,99916.59
2022-09-14T02:40:36.936Z,99914.97
2022-09-14T02:43:26.804Z,99911.72
2022-09-14T02:46:33.515Z,99912.06
2022-09-14T02:49:23.336Z,99911.63
2022-09-14T02:52:21.217Z,99906.50
2022-09-14T02:55:15.020Z,99900.16
2022-09-14T02:58:13.431Z,99899.69
2022-09-14T03:00:49.039Z,99890.06
2022-09-14T03:03:21.963Z,99882.88
2022-09-14T03:05:50.236Z,99882.09
2022-09-14T03:08:18.426Z,99882.09
2022-09-14T03:10:46.739Z,99880.50
2022-09-14T03:13:14.888Z,99877.72
2022-09-14T03:15:43.370Z,99879.31
2022-09-14T03:18:14.425Z,99874.94
2022-09-14T03:20:43.309Z,99863.09
2022-09-14T03:23:12.435Z,99872.59
2022-09-14T03:25:43.813Z,99870.16
2022-09-14T03:28:13.042Z,99874.69
2022-09-14T03:30:41.632Z,99872.50
2022-09-14T03:33:09.934Z,99873.19
2022-09-14T03:35:38.114Z,99870.28
2022-09-14T03:38:06.605Z,99859.16
2022-09-14T03:40:34.935Z,99848.84
2022-09-14T03:43:03.184Z,99846.06
2022-09-14T03:45:31.383Z,99850.81
2022-09-14T03:47:59.526Z,99841.19
2022-09-14T03:50:29.384Z,99847.59
2022-09-14T03:52:58.133Z,99847.38
2022-09-14T03:55:26.616Z,99847.38
2022-09-14T03:57:55.943Z,99852.56
2022-09-14T04:00:24.316Z,99859.06
2022-09-14T04:02:52.765Z,99855.09
2022-09-14T04:05:22.093Z,99849.91
2022-09-14T04:07:50.444Z,99854.63
2022-09-14T04:10:18.906Z,99845.28
2022-09-14T04:12:47.105Z,99838.31
2022-09-14T04:15:15.360Z,99839.84
2022-09-14T04:17:43.718Z,99843.78
2022-09-14T04:20:11.992Z,99839.75
2022-09-14T04:22:40.135Z,99830.91
2022-09-14T04:25:08.463Z,99840.44
2022-09-14T04:27:36.856Z,99833.25
2022-09-14T04:30:06.550Z,99836.72
2022-09-14T04:32:34.859Z,99835.56
2022-09-14T04:35:03.207Z,99840.22
2022-09-14T04:37:32.799Z,99833.50
2022-09-14T04:40:01.339Z,99828.28
2022-09-14T04:42:30.106Z,99832.59
2022-09-14T04:44:58.363Z,99831.31
2022-09-14T04:47:26.604Z,99832.78
2022-09-14T04:49:54.794Z,99836.06
2022-09-14T04:52:24.556Z,99835.25
2022-09-14T04:54:52.732Z,99833.94
2022-09-14T04:57:20.957Z,99835.56
2022-09-14T04:59:49.129Z,99827.94
2022-09-14T05:02:17.501Z,99826.31
2022-09-14T05:04:45.754Z,99831.88
2022-09-14T05:07:14.004Z,99820.75
2022-09-14T05:09:42.535Z,99824.00
2022-09-14T05:12:10.722Z,99822.38
2022-09-14T05:14:39.182Z,99822.84
2022-09-14T05:17:07.330Z,99829.56
2022-09-14T05:19:35.499Z,99834.41
2022-09-14T05:22:03.699Z,99828.53
2022-09-14T05:24:33.031Z,99824.25
2022-09-14T05:27:02.378Z,99824.25
2022-09-14T05:29:31.772Z,99815.22
2022-09-14T05:32:00.133Z,99814.88
2022-09-14T05:34:28.363Z,99817.28
2022-09-14T05:36:56.516Z,99814.97
2022-09-14T05:39:25.112Z,99812.66
2022-09-14T05:41:53.495Z,99810.31
2022-09-14T05:44:21.767Z,99811.94
2022-09-14T05:46:50.080Z,99823.97
2022-09-14T05:49:18.420Z,99820.44
2022-09-14T05:51:46.723Z,99819.69
2022-09-14T05:54:15.428Z,99820.25
2022-09-14T05:56:43.727Z,99818.00
2022-09-14T05:59:11.949Z,99814.53
2022-09-14T06:01:40.298Z,99819.03
2022-09-14T06:04:08.819Z,99817.63
2022-09-14T06:06:37.065Z,99812.53
2022-09-14T06:09:05.510Z,99811.91
2022-09-14T06:11:38.242Z,99810.13
2022-09-14T06:14:07.329Z,99811.16
2022-09-14T06:16:35.832Z,99806.56
2022-09-14T06:19:04.756Z,99794.81
2022-09-14T06:21:35.104Z,99800.13
2022-09-14T06:24:03.658Z,99798.34
2022-09-14T06:26:32.134Z,99799.22
2022-09-14T06:29:00.295Z,99796.31
2022-09-14T06:31:28.526Z,99794.44
2022-09-14T06:33:56.773Z,99791.03
2022-09-14T06:36:27.677Z,99784.38
2022-09-14T06:38:55.755Z,99791.63
2022-09-14T06:41:30.350Z,99797.75
2022-09-14T06:44:01.579Z,99790.00
2022-09-14T06:46:33.691Z,99794.94
2022-09-14T06:49:11.358Z,99796.22
2022-09-14T06:51:44.295Z,99792.78
2022-09-14T06:54:17.724Z,99789.72
2022-09-14T06:56:46.828Z,99793.81
2022-09-14T06:59:17.410Z,99799.56
2022-09-14T07:01:46.359Z,99803.84
2022-09-14T07:04:14.836Z,99808.41
2022-09-14T07:06:49.804Z,99807.41
2022-09-14T07:09:19.734Z,99803.19
2022-09-14T07:11:49.038Z,99810.97
2022-09-14T07:14:17.290Z,99794.38
2022-09-14T07:16:45.048Z,99799.78
2022-09-14T07:19:15.241Z,99810.22
2022-09-14T07:21:43.996Z,99819.97
2022-09-14T07:24:14.723Z,99808.16
2022-09-14T07:26:43.758Z,99817.44
2022-09-14T07:29:18.240Z,99806.06
2022-09-14T07:31:56.332Z,99807.13
2022-09-14T07:34:25.347Z,99804.03
2022-09-14T07:36:54.096Z,99800.72
2022-09-14T07:39:21.924Z,99785.25
2022-09-14T07:41:50.223Z,99787.56
2022-09-14T07:44:18.382Z,99806.88
2022-09-14T07:46:46.894Z,99794.03
2022-09-14T07:49:16.479Z,99801.53
2022-09-14T07:51:45.430Z,99791.63
2022-09-14T07:54:17.754Z,99793.78
2022-09-14T07:56:46.452Z,99797.88
2022-09-14T07:59:34.971Z,99791.66
2022-09-14T08:02:07.318Z,99790.59
2022-09-14T08:04:42.406Z,99799.78
2022-09-14T08:07:10.629Z,99798.19
2022-09-14T08:09:39.390Z,99797.28
2022-09-14T08:12:07.723Z,99798.72
2022-09-14T08:14:36.930Z,99800.00
2022-09-14T08:17:05.308Z,99792.16
2022-09-14T08:19:33.471Z,99784.28
2022-09-14T08:22:01.690Z,99789.59
2022-09-14T08:24:30.333Z,99802.78
2022-09-14T08:26:58.233Z,99797.25
2022-09-14T08:29:26.508Z,99796.16
2022-09-14T08:31:54.732Z,99805.91
2022-09-14T08:34:23.115Z,99808.28
2022-09-14T08:36:51.553Z,99793.66
2022-09-14T08:39:20.528Z,99791.03
2022-09-14T08:41:56.563Z,99783.75
2022-09-14T08:44:43.060Z,99793.06
2022-09-14T08:47:27.982Z,99788.72
2022-09-14T08:50:13.578Z,99789.94
2022-09-14T08:52:45.117Z,99786.50
2022-09-14T08:55:45.337Z,99780.97
2022-09-14T08:58:59.839Z,99787.78
2022-09-14T09:01:45.972Z,99785.84
2022-09-14T09:04:29.630Z,99773.03
2022-09-14T09:07:32.288Z,99769.84
2022-09-14T09:10:01.389Z,99767.03
2022-09-14T09:12:57.534Z,99762.63
2022-09-14T09:15:41.147Z,99759.00
2022-09-14T09:18:20.840Z,99755.41
2022-09-14T09:20:58.024Z,99735.75
2022-09-14T09:23:29.955Z,99730.56
2022-09-14T09:26:32.801Z,99745.81
2022-09-14T09:29:03.249Z,99747.81
2022-09-14T09:31:55.087Z,99755.44
2022-09-14T09:34:41.980Z,99758.25
2022-09-14T09:37:37.310Z,99759.84
2022-09-14T09:40:20.890Z,99761.06
2022-09-14T09:43:38.896Z,99755.44
2022-09-14T09:46:10.337Z,99765.88
2022-09-14T09:48:45.388Z,99767.47
2022-09-14T09:51:24.207Z,99747.41
2022-09-14T09:54:07.055Z,99743.41
2022-09-14T09:56:52.123Z,99748.22
2022-09-14T09:59:42.360Z,99741.00
2022-09-14T10:02:32.172Z,99751.44
2022-09-14T10:05:17.989Z,99750.63
2022-09-14T10:10:46.463Z,99739.78
2022-09-14T10:13:26.057Z,99749.03
2022-09-14T10:15:54.595Z,99751.81
2022-09-14T10:18:23.252Z,99748.63
2022-09-14T10:20:53.907Z,99751.41
2022-09-14T10:23:25.819Z,99745.41
2022-09-14T10:26:12.010Z,99738.59
2022-09-14T10:28:49.633Z,99745.44
2022-09-14T10:31:20.820Z,99733.78
2022-09-14T10:33:56.394Z,99739.38
2022-09-14T10:36:44.379Z,99732.53
2022-09-14T10:39:52.610Z,99723.28
2022-09-14T10:42:40.853Z,99723.28
2022-09-14T10:45:35.875Z,99722.06
2022-09-14T10:48:46.799Z,99716.00
2022-09-14T10:51:52.861Z,99727.69
2022-09-14T10:54:39.725Z,99720.81
2022-09-14T10:57:43.242Z,99724.88
2022-09-14T11:00:20.004Z,99724.88
2022-09-14T11:03:24.606Z,99715.25
2022-09-14T11:06:23.571Z,99720.78
2022-09-14T11:13:55.003Z,99723.13
2022-09-14T11:17:15.926Z,99726.31
2022-09-14T11:19:56.840Z,99725.09
2022-09-14T11:22:48.072Z,99724.66
2022-09-14T11:25:24.644Z,99721.38
2022-09-14T11:27:58.737Z,99725.78
2022-09-14T11:30:42.178Z,99729.22
2022-09-14T11:33:21.126Z,99731.16
2022-09-14T11:35:58.617Z,99729.88
2022-09-14T11:38:36.426Z,99735.06
2022-09-14T11:41:21.481Z,99731.91
2022-09-14T11:44:05.188Z,99724.59
2022-09-14T11:46:39.920Z,99722.16
2022-09-14T11:49:18.741Z,99720.16
2022-09-14T11:52:16.821Z,99714.09
2022-09-14T11:54:46.974Z,99715.69
2022-09-14T11:57:24.552Z,99710.94
2022-09-14T12:00:27.785Z,99701.28
2022-09-14T12:03:22.570Z,99700.84
2022-09-14T12:05:50.812Z,99695.59
2022-09-14T12:08:30.929Z,99693.97
2022-09-14T12:11:07.755Z,99693.59
2022-09-14T12:13:37.510Z,99695.25
2022-09-14T12:16:13.119Z,99705.19
2022-09-14T12:18:56.625Z,99698.41
2022-09-14T12:21:31.288Z,99700.09
2022-09-14T12:24:15.044Z,99701.69
2022-09-14T12:26:43.355Z,99709.47
2022-09-14T12:29:33.582Z,99696.50
2022-09-14T12:32:05.900Z,99700.47
2022-09-14T12:34:34.432Z,99706.06
2022-09-14T12:37:30.011Z,99700.44
2022-09-14T12:40:20.116Z,99699.69
2022-09-14T12:42:48.547Z,99690.00
2022-09-14T12:46:31.793Z,99688.31
2022-09-14T12:49:24.427Z,99692.34
2022-09-14T12:51:52.957Z,99683.53
2022-09-14T12:54:59.690Z,99684.75
2022-09-14T12:57:45.608Z,99684.31
2022-09-14T13:00:18.212Z,99681.94
2022-09-14T13:03:18.900Z,99684.22
2022-09-14T13:05:47.489Z,99683.56
2022-09-14T13:08:24.132Z,99677.56
2022-09-14T13:10:53.209Z,99671.41
2022-09-14T13:13:31.766Z,99679.44
2022-09-14T13:16:05.002Z,99678.63
2022-09-14T13:18:38.183Z,99668.34
2022-09-14T13:21:24.907Z,99672.38
2022-09-14T13:23:53.203Z,99670.47
2022-09-14T13:26:29.243Z,99656.25
2022-09-14T13:29:00.564Z,99661.94
2022-09-14T13:31:38.026Z,99653.91
2022-09-14T13:34:06.342Z,99650.63
2022-09-14T13:36:42.216Z,99643.84
2022-09-14T13:39:31.282Z,99649.75
2022-09-14T13:42:00.063Z,99646.28
2022-09-14T13:44:46.682Z,99650.97
2022-09-14T13:47:20.471Z,99640.91
2022-09-14T13:49:52.112Z,99634.59
2022-09-14T13:52:49.698Z,99636.44
2022-09-14T13:55:23.084Z,99640.00
2022-09-14T13:58:09.371Z,99635.91
2022-09-14T14:01:06.926Z,99620.59
2022-09-14T14:03:47.831Z,99625.44
2022-09-14T14:06:20.673Z,99612.88
2022-09-14T14:09:06.993Z,99613.75
2022-09-14T14:11:52.878Z,99599.53
2022-09-14T14:14:30.766Z,99601.09
2022-09-14T14:17:36.881Z,99600.72
2022-09-14T14:20:26.412Z,99594.00
2022-09-14T14:23:10.849Z,99592.66
2022-09-14T14:25:52.032Z,99586.16
2022-09-14T14:28:25.930Z,99583.16
2022-09-14T14:30:57.285Z,99590.28
2022-09-14T14:33:25.703Z,99587.09
2022-09-14T14:35:56.395Z,99587.91
2022-09-14T14:38:25.248Z,99582.25
2022-09-14T14:40:55.095Z,99587.16
2022-09-14T14:43:25.863Z,99582.31
2022-09-14T14:46:01.025Z,99577.44
2022-09-14T14:48:29.626Z,99583.16
2022-09-14T14:50:57.950Z,99590.38
2022-09-14T14:53:26.386Z,99588.97
2022-09-14T14:55:54.692Z,99594.56
2022-09-14T14:58:23.743Z,99587.63
2022-09-14T15:00:52.890Z,99591.66
2022-09-14T15:03:20.765Z,99596.06
2022-09-14T15:05:49.726Z,99595.56
2022-09-14T15:08:20.026Z,99591.06
2022-09-14T15:10:49.373Z,99590.00
2022-09-14T15:13:18.553Z,99584.41
2022-09-14T15:15:46.890Z,99588.50
2022-09-14T15:18:15.092Z,99586.78
2022-09-14T15:20:43.461Z,99580.50
2022-09-14T15:23:14.098Z,99589.00
2022-09-14T15:25:42.162Z,99586.06
2022-09-14T15:28:10.353Z,99590.22
2022-09-14T15:30:38.715Z,99581.47
2022-09-14T15:33:07.113Z,99581.91
2022-09-14T15:35:35.406Z,99577.97
2022-09-14T15:38:04.170Z,99578.47
2022-09-14T15:40:33.027Z,99572.81
2022-09-14T15:43:01.284Z,99563.34
2022-09-14T15:45:29.534Z,99561.59
2022-09-14T15:47:57.732Z,99557.72
2022-09-14T15:50:25.949Z,99566.56
2022-09-14T15:52:53.900Z,99574.13
2022-09-14T15:55:22.440Z,99570.31
2022-09-14T15:57:50.601Z,99566.22
2022-09-14T16:00:19.483Z,99565.59
2022-09-14T16:02:50.174Z,99570.91
2022-09-14T16:05:18.878Z,99561.22
2022-09-14T16:07:47.127Z,99555.09
2022-09-14T16:10:15.393Z,99558.78
2022-09-14T16:12:43.566Z,99549.09
2022-09-14T16:15:11.872Z,99543.50
2022-09-14T16:17:40.035Z,99543.03
2022-09-14T16:20:10.372Z,99558.41
2022-09-14T16:22:38.644Z,99563.22
2022-09-14T16:25:06.929Z,99560.91
2022-09-14T16:27:35.359Z,99562.13
2022-09-14T16:30:03.809Z,99565.69
2022-09-14T16:32:31.971Z,99563.31
2022-09-14T16:35:00.859Z,99559.97
2022-09-14T16:37:30.668Z,99557.03
2022-09-14T16:39:59.818Z,99548.50
2022-09-14T16:42:28.098Z,99556.03
2022-09-14T16:44:56.231Z,99555.97
2022-09-14T16:47:25.801Z,99560.19
2022-09-14T16:49:53.856Z,99554.56
2022-09-14T16:52:22.258Z,99555.69
2022-09-14T16:54:55.404Z,99548.00
2022-09-14T16:57:26.704Z,99549.63
2022-09-14T16:59:54.889Z,99553.66
2022-09-14T17:02:22.759Z,99551.66
2022-09-14T17:04:51.112Z,99556.78
2022-09-14T17:07:19.144Z,99554.59
2022-09-14T17:09:47.665Z,99548.31
2022-09-14T17:12:15.840Z,99545.53
2022-09-14T17:14:44.083Z,99545.09
2022-09-14T17:17:12.242Z,99545.84
2022-09-14T17:19:43.509Z,99544.72
2022-09-14T17:22:13.009Z,99542.69
2022-09-14T17:24:41.180Z,99546.28
2022-09-14T17:27:10.870Z,99552.72
2022-09-14T17:29:40.683Z,99558.38
2022-09-14T17:32:12.522Z,99560.06
2022-09-14T17:34:42.894Z,99564.44
2022-09-14T17:37:11.188Z,99568.06
2022-09-14T17:39:38.964Z,99574.00
2022-09-14T17:42:07.277Z,99567.63
2022-09-14T17:44:35.792Z,99574.38
2022-09-14T17:47:04.181Z,99564.41
2022-09-14T17:49:32.525Z,99564.78
2022-09-14T17:52:01.918Z,99575.63
2022-09-14T17:54:31.108Z,99581.19
2022-09-14T17:56:58.987Z,99592.25
2022-09-14T17:59:27.612Z,99592.84
2022-09-14T18:01:55.853Z,99598.91
2022-09-14T18:04:24.245Z,99599.28
2022-09-14T18:06:52.483Z,99598.59
2022-09-14T18:09:24.255Z,99597.53
2022-09-14T18:11:56.947Z,99599.84
2022-09-14T18:14:25.684Z,99603.84
2022-09-14T18:16:53.925Z,99605.78
2022-09-14T18:19:22.006Z,99609.25
2022-09-14T18:21:52.642Z,99599.81
2022-09-14T18:24:21.294Z,99608.56
2022-09-14T18:26:49.851Z,99615.50
2022-09-14T18:32:03.591Z,99616.81
2022-09-14T18:34:31.808Z,99611.72
2022-09-14T18:36:59.973Z,99618.44
2022-09-14T18:39:28.132Z,99620.66
2022-09-14T18:41:56.362Z,99622.97
2022-09-14T18:44:24.560Z,99630.66
2022-09-14T18:46:52.899Z,99626.47
2022-09-14T18:49:20.783Z,99628.88
2022-09-14T18:51:49.175Z,99631.66
2022-09-14T18:54:18.307Z,99617.50
2022-09-14T18:56:49.982Z,99620.88
2022-09-14T18:59:18.315Z,99617.75
2022-09-14T19:01:46.656Z,99618.63
2022-09-14T19:04:15.723Z,99628.72
2022-09-14T19:06:44.619Z,99621.72
2022-09-14T19:09:13.128Z,99632.50
2022-09-14T19:11:42.059Z,99629.94
2022-09-14T19:14:12.584Z,99621.47
2022-09-14T19:16:42.184Z,99619.50
2022-09-14T19:19:14.931Z,99623.78
2022-09-14T19:21:44.202Z,99625.59
2022-09-14T19:24:15.303Z,99629.41
2022-09-14T19:26:51.001Z,99636.72
2022-09-14T19:29:23.584Z,99630.97
2022-09-14T19:31:52.871Z,99632.25
2022-09-14T19:34:25.044Z,99633.13
2022-09-14T19:36:54.375Z,99631.56
2022-09-14T19:39:24.289Z,99637.22
2022-09-14T19:41:52.848Z,99642.91
2022-09-14T19:44:23.093Z,99638.69
2022-09-14T19:46:51.495Z,99648.63
2022-09-14T19:49:25.563Z,99653.16
2022-09-14T19:51:54.080Z,99647.28
2022-09-14T19:54:22.467Z,99646.03
2022-09-14T19:56:50.725Z,99640.94
2022-09-14T19:59:19.031Z,99651.25
2022-09-14T20:01:47.253Z,99654.31
2022-09-14T20:04:15.659Z,99653.00
2022-09-14T20:07:09.179Z,99647.44
2022-09-14T20:09:38.313Z,99653.91
2022-09-14T20:12:06.236Z,99644.28
2022-09-14T20:14:34.759Z,99653.47
2022-09-14T20:17:03.114Z,99659.91
2022-09-14T20:19:32.520Z,99652.59
2022-09-14T20:22:00.826Z,99651.06
2022-09-14T20:24:31.500Z,99654.97
2022-09-14T20:27:02.013Z,99657.53
2022-09-14T20:29:33.997Z,99651.09
2022-09-14T20:32:04.800Z,99653.75
2022-09-14T20:34:34.296Z,99652.94
2022-09-14T20:37:02.464Z,99657.69
2022-09-14T20:39:31.540Z,99657.66
2022-09-14T20:41:59.884Z,99659.47
2022-09-14T20:44:28.056Z,99654.97
2022-09-14T20:46:56.274Z,99661.25
2022-09-14T20:49:24.611Z,99666.56
2022-09-14T20:51:54.115Z,99665.19
2022-09-14T20:54:22.725Z,99664.97
2022-09-14T20:56:50.579Z,99662.84
2022-09-14T20:59:25.573Z,99664.47
2022-09-14T21:01:53.812Z,99671.06
2022-09-14T21:04:25.370Z,99666.84
2022-09-14T21:06:55.911Z,99670.75
2022-09-14T21:09:25.952Z,99669.13
2022-09-14T21:11:54.499Z,99674.16
2022-09-14T21:14:22.738Z,99662.66
2022-09-14T21:16:56.533Z,99668.56
2022-09-14T21:19:28.112Z,99661.44
2022-09-14T21:21:56.726Z,99671.97
2022-09-14T21:24:25.256Z,99662.44
2022-09-14T21:26:53.430Z,99670.25
2022-09-14T21:29:23.774Z,99671.47
2022-09-14T21:31:52.746Z,99670.94
2022-09-14T21:34:21.419Z,99672.91
2022-09-14T21:37:14.127Z,99678.44
2022-09-14T21:39:42.076Z,99675.50
2022-09-14T21:42:10.381Z,99684.13
2022-09-14T21:44:38.132Z,99683.31
2022-09-14T21:47:06.626Z,99684.56
2022-09-14T21:49:35.205Z,99684.03
2022-09-14T21:52:03.986Z,99683.13
2022-09-14T21:54:32.192Z,99684.56
2022-09-14T21:57:00.588Z,99690.38
2022-09-14T21:59:28.848Z,99694.44
2022-09-14T22:01:57.019Z,99685.88
2022-09-14T22:04:26.089Z,99686.88
2022-09-14T22:06:55.076Z,99682.97
2022-09-14T22:09:28.270Z,99683.75
2022-09-14T22:11:57.433Z,99687.28
2022-09-14T22:14:29.360Z,99684.06
2022-09-14T22:16:57.305Z,99687.59
2022-09-14T22:19:30.402Z,99687.91
2022-09-14T22:21:58.661Z,99697.84
2022-09-14T22:24:37.743Z,99696.16
2022-09-14T22:27:10.628Z,99698.09
2022-09-14T22:29:42.981Z,99697.19
2022-09-14T22:32:11.942Z,99698.03
2022-09-14T22:34:48.813Z,99689.19
2022-09-14T22:37:17.530Z,99681.97
2022-09-14T22:39:46.807Z,99690.31
2022-09-14T22:42:15.121Z,99679.91
2022-09-14T22:44:43.308Z,99685.78
2022-09-14T22:47:12.536Z,99679.38
2022-09-14T22:49:40.735Z,99677.72
2022-09-14T22:52:08.902Z,99686.09
2022-09-14T22:54:36.729Z,99687.97
2022-09-14T22:57:04.975Z,99695.13
2022-09-14T22:59:33.227Z,99687.38
2022-09-14T23:02:01.495Z,99682.38
2022-09-14T23:04:31.030Z,99684.88
2022-09-14T23:07:00.101Z,99693.97
2022-09-14T23:09:28.382Z,99678.59
2022-09-14T23:11:56.714Z,99679.75
2022-09-14T23:14:25.220Z,99690.91
2022-09-14T23:16:53.037Z,99684.09
2022-09-14T23:19:21.171Z,99689.13
2022-09-14T23:21:49.102Z,99690.75
2022-09-14T23:24:17.453Z,99689.88
2022-09-14T23:26:45.625Z,99685.59
2022-09-14T23:29:16.957Z,99685.78
2022-09-14T23:31:46.056Z,99690.53
2022-09-14T23:34:14.517Z,99692.50
2022-09-14T23:36:42.323Z,99687.22
2022-09-14T23:39:10.391Z,99685.16
2022-09-14T23:41:39.795Z,99693.97
2022-09-14T23:44:09.696Z,99692.00
2022-09-14T23:46:37.480Z,99694.72
2022-09-14T23:49:05.753Z,99688.25
2022-09-14T23:51:34.331Z,99687.00
2022-09-14T23:54:02.093Z,99679.75
2022-09-14T23:56:31.261Z,99682.66
2022-09-14T23:58:59.479Z,99680.31
